Map

Track Data

SID SEASON NUMBER BASIN SUBBASIN NAME ISO_TIME NATURE LAT LON WMO_WIND WMO_PRES WMO_AGENCY TRACK_TYPE DIST2LAND LANDFALL IFLAG USA_AGENCY USA_ATCF_ID USA_LAT USA_LON USA_RECORD USA_STATUS USA_WIND USA_PRES USA_SSHS USA_R34_NE USA_R34_SE USA_R34_SW USA_R34_NW USA_R50_NE USA_R50_SE USA_R50_SW USA_R50_NW USA_R64_NE USA_R64_SE USA_R64_SW USA_R64_NW USA_POCI USA_ROCI USA_RMW USA_EYE TOKYO_LAT TOKYO_LON TOKYO_GRADE TOKYO_WIND TOKYO_PRES TOKYO_R50_DIR TOKYO_R50_LONG TOKYO_R50_SHORT TOKYO_R30_DIR TOKYO_R30_LONG TOKYO_R30_SHORT TOKYO_LAND CMA_LAT CMA_LON CMA_CAT CMA_WIND CMA_PRES HKO_LAT HKO_LON HKO_CAT HKO_WIND HKO_PRES NEWDELHI_LAT NEWDELHI_LON NEWDELHI_GRADE NEWDELHI_WIND NEWDELHI_PRES NEWDELHI_CI NEWDELHI_DP NEWDELHI_POCI REUNION_LAT REUNION_LON REUNION_TYPE REUNION_WIND REUNION_PRES REUNION_TNUM REUNION_CI REUNION_RMW REUNION_R34_NE REUNION_R34_SE REUNION_R34_SW REUNION_R34_NW REUNION_R50_NE REUNION_R50_SE REUNION_R50_SW REUNION_R50_NW REUNION_R64_NE REUNION_R64_SE REUNION_R64_SW REUNION_R64_NW BOM_LAT BOM_LON BOM_TYPE BOM_WIND BOM_PRES BOM_TNUM BOM_CI BOM_RMW BOM_R34_NE BOM_R34_SE BOM_R34_SW BOM_R34_NW BOM_R50_NE BOM_R50_SE BOM_R50_SW BOM_R50_NW BOM_R64_NE BOM_R64_SE BOM_R64_SW BOM_R64_NW BOM_ROCI BOM_POCI BOM_EYE BOM_POS_METHOD BOM_PRES_METHOD NADI_LAT NADI_LON NADI_CAT NADI_WIND NADI_PRES WELLINGTON_LAT WELLINGTON_LON WELLINGTON_WIND WELLINGTON_PRES DS824_LAT DS824_LON DS824_STAGE DS824_WIND DS824_PRES TD9636_LAT TD9636_LON TD9636_STAGE TD9636_WIND TD9636_PRES TD9635_LAT TD9635_LON TD9635_WIND TD9635_PRES TD9635_ROCI NEUMANN_LAT NEUMANN_LON NEUMANN_CLASS NEUMANN_WIND NEUMANN_PRES MLC_LAT MLC_LON MLC_CLASS MLC_WIND MLC_PRES USA_GUST BOM_GUST BOM_GUST_PER REUNION_GUST REUNION_GUST_PER USA_SEAHGT USA_SEARAD_NE USA_SEARAD_SE USA_SEARAD_SW USA_SEARAD_NW STORM_SPEED STORM_DIR
1929046S18042 1929 18 SI MM NOT_NAMED 1929-02-14 18:00:00 NR -18.0000 41.8000 main 229 229 __________O___ -1 -18.0000 41.8000 7 9 188
1929046S18042 1929 18 SI MM NOT_NAMED 1929-02-14 21:00:00 NR -18.4344 41.7363 main 242 242 __________P___ -1 -18.4344 41.7363 7 9 188
1929046S18042 1929 18 SI MM NOT_NAMED 1929-02-15 00:00:00 NR -18.8451 41.6779 main 246 246 __________P___ -1 -18.8451 41.6779 7 8 187
1929046S18042 1929 18 SI MM NOT_NAMED 1929-02-15 03:00:00 NR -19.2082 41.6306 main 268 268 __________P___ -1 -19.2082 41.6306 7 7 186
1929046S18042 1929 18 SI MM NOT_NAMED 1929-02-15 06:00:00 NR -19.5000 41.6000 main 276 269 __________O___ -1 -19.5000 41.6000 7 5 185
1929046S18042 1929 18 SI MM NOT_NAMED 1929-02-15 09:00:00 NR -19.7050 41.5895 main 269 264 __________P___ -1 -19.7050 41.5895 7 3 183
1929046S18042 1929 18 SI MM NOT_NAMED 1929-02-15 12:00:00 NR -19.8400 41.5923 main 264 259 __________P___ -1 -19.8400 41.5923 7 2 0
1929046S18042 1929 18 SI MM NOT_NAMED 1929-02-15 15:00:00 NR -19.9300 41.5989 main 259 252 __________P___ -1 -19.9300 41.5989 7 2 0
1929046S18042 1929 18 SI MM NOT_NAMED 1929-02-15 18:00:00 NR -20.0000 41.6000 main 252 245 __________O___ -1 -20.0000 41.6000 7 2 0
1929046S18042 1929 18 SI MM NOT_NAMED 1929-02-15 21:00:00 NR -20.0894 41.5822 main 245 238 __________P___ -1 -20.0894 41.5822 7 2 191
1929046S18042 1929 18 SI MM NOT_NAMED 1929-02-16 00:00:00 NR -20.1650 41.5575 main 238 238 __________P___ -1 -20.1650 41.5575 7 2 200
1929046S18042 1929 18 SI MM NOT_NAMED 1929-02-16 03:00:00 NR -20.2331 41.5291 main 247 241 __________P___ -1 -20.2331 41.5291 7 1 204
1929046S18042 1929 18 SI MM NOT_NAMED 1929-02-16 06:00:00 NR -20.3000 41.5000 main 241 235 __________O___ -1 -20.3000 41.5000 7 1 201
1929046S18042 1929 18 SI MM NOT_NAMED 1929-02-16 09:00:00 NR -20.3709 41.4709 main 235 235 __________P___ -1 -20.3709 41.4709 7 2 202
1929046S18042 1929 18 SI MM NOT_NAMED 1929-02-16 12:00:00 NR -20.4425 41.4425 main 245 240 __________P___ -1 -20.4425 41.4425 7 2 202
1929046S18042 1929 18 SI MM NOT_NAMED 1929-02-16 15:00:00 NR -20.5178 41.4178 main 240 235 __________P___ -1 -20.5178 41.4178 7 2 195
1929046S18042 1929 18 SI MM NOT_NAMED 1929-02-16 18:00:00 NR -20.6000 41.4000 main 235 231 __________O___ -1 -20.6000 41.4000 7 1 0
1929046S18042 1929 18 SI MM NOT_NAMED 1929-02-16 21:00:00 NR -20.6563 41.3968 main 231 231 __________P___ -1 -20.6563 41.3968 7 1 182
1929046S18042 1929 18 SI MM NOT_NAMED 1929-02-17 00:00:00 NR -20.7250 41.3999 main 231 227 __________P___ -1 -20.7250 41.3999 7 2 172
1929046S18042 1929 18 SI MM NOT_NAMED 1929-02-17 03:00:00 NR -20.8313 41.4030 main 227 222 __________P___ -1 -20.8313 41.4030 7 3 0
1929046S18042 1929 18 SI MM NOT_NAMED 1929-02-17 06:00:00 NR -21.0000 41.4000 main 222 215 __________O___ -1 -21.0000 41.4000 7 4 0
1929046S18042 1929 18 SI MM NOT_NAMED 1929-02-17 09:00:00 NR -21.2563 41.3822 main 211 197 __________P___ -1 -21.2563 41.3822 7 6 183
1929046S18042 1929 18 SI MM NOT_NAMED 1929-02-17 12:00:00 NR -21.5750 41.3576 main 197 193 __________P___ -1 -21.5750 41.3576 7 7 185
1929046S18042 1929 18 SI MM NOT_NAMED 1929-02-17 15:00:00 NR -21.9313 41.3291 main 198 195 __________P___ -1 -21.9313 41.3291 7 7 185
1929046S18042 1929 18 SI MM NOT_NAMED 1929-02-17 18:00:00 NR -22.3000 41.3000 main 195 195 __________O___ -1 -22.3000 41.3000 7 7 185
1929046S18042 1929 18 SI MM NOT_NAMED 1929-02-17 21:00:00 NR -22.6185 41.2670 main 198 198 __________P___ -1 -22.6185 41.2670 7 7 185
1929046S18042 1929 18 SI MM NOT_NAMED 1929-02-18 00:00:00 NR -22.9475 41.2352 main 215 215 __________P___ -1 -22.9475 41.2352 7 7 184
1929046S18042 1929 18 SI MM NOT_NAMED 1929-02-18 03:00:00 NR -23.3028 41.2108 main 231 231 __________P___ -1 -23.3028 41.2108 7 8 183
1929046S18042 1929 18 SI MM NOT_NAMED 1929-02-18 06:00:00 NR -23.7000 41.2000 main 244 244 __________O___ -1 -23.7000 41.2000 7 9 182
1929046S18042 1929 18 SI MM NOT_NAMED 1929-02-18 09:00:00 NR -24.1528 41.2104 main 250 250 __________P___ -1 -24.1528 41.2104 7 10 177
1929046S18042 1929 18 SI MM NOT_NAMED 1929-02-18 12:00:00 NR -24.6476 41.2348 main 259 254 __________P___ -1 -24.6476 41.2348 7 10 177
1929046S18042 1929 18 SI MM NOT_NAMED 1929-02-18 15:00:00 NR -25.1685 41.2667 main 260 260 __________P___ -1 -25.1685 41.2667 7 11 177
1929046S18042 1929 18 SI MM NOT_NAMED 1929-02-18 18:00:00 NR -25.7000 41.3000 main 279 279 __________O___ -1 -25.7000 41.3000 7 10 181
1929046S18042 1929 18 SI MM NOT_NAMED 1929-02-18 21:00:00 NR -26.2092 41.2585 main 301 301 __________P___ -1 -26.2092 41.2585 7 10 184
1929046S18042 1929 18 SI MM NOT_NAMED 1929-02-19 00:00:00 NR -26.7266 41.2266 main 338 338 __________P___ -1 -26.7266 41.2266 7 11 181
1929046S18042 1929 18 SI MM NOT_NAMED 1929-02-19 03:00:00 NR -27.2557 41.2562 main 372 372 __________P___ -1 -27.2557 41.2562 7 11 172
1929046S18042 1929 18 SI MM NOT_NAMED 1929-02-19 06:00:00 NR -27.8000 41.4000 main 405 405 __________O___ -1 -27.8000 41.4000 7 12 161
1929046S18042 1929 18 SI MM NOT_NAMED 1929-02-19 09:00:00 NR -28.4052 41.6930 main 437 437 __________P___ -1 -28.4052 41.6930 7 14 153
1929046S18042 1929 18 SI MM NOT_NAMED 1929-02-19 12:00:00 NR -29.0171 42.1095 main 471 471 __________P___ -1 -29.0171 42.1095 7 14 146
1929046S18042 1929 18 SI MM NOT_NAMED 1929-02-19 15:00:00 NR -29.5955 42.6215 main 511 508 __________P___ -1 -29.5955 42.6215 7 14 139
1929046S18042 1929 18 SI MM NOT_NAMED 1929-02-19 18:00:00 NR -30.1000 43.2000 main 539 539 __________O___ -1 -30.1000 43.2000 7 14 131
1929046S18042 1929 18 SI MM NOT_NAMED 1929-02-19 21:00:00 NR -30.5020 43.8179 main 564 561 __________P___ -1 -30.5020 43.8179 7 13 123
1929046S18042 1929 18 SI MM NOT_NAMED 1929-02-20 00:00:00 NR -30.8176 44.4628 main 584 584 __________P___ -1 -30.8176 44.4628 7 13 117
1929046S18042 1929 18 SI MM NOT_NAMED 1929-02-20 03:00:00 NR -31.0744 45.1261 main 614 614 __________P___ -1 -31.0744 45.1261 7 12 113
1929046S18042 1929 18 SI MM NOT_NAMED 1929-02-20 06:00:00 NR -31.3000 45.8000 main 637 __________O___ -1 -31.3000 45.8000 7 12 111

About IBTrACS Database

This database is a web-friendly format of International Best Track Archive for Climate Stewardship (IBTrACS), a global best track data archive curated by NOAA dating back to 1842.

Updated: 2021-12-03